Summerville, Louisiana
Current Conditions -  °F | °C
As of 12:53 PM on Monday 20 Oct 2014 (Local Time) from KESF Reporting Station
Clear Clear  
Wind Chill: 76°   Ceiling: Unl
Heat Index: 76°   Visibility: 10mi
Dew Point: 52°   Wind: 3mph
Humidity: 43%   Direction: NA
Pressure: 30.06"   Gusts: NA
Location:  31.8657°N, 92.2616°W
Report Text: KESF 201753Z AUTO VRB03KT 10SM CLR 24/11 A3006 RMK AO2 SLP178 T02440111 10244 20072 58015
Loading
Personal Weather Stations






























Interactive Weather Map
Tropical Storm Tracking
New forecast layout! Learn more

10-Day Weather Forecast

Advertisements
Track Severe Weather on mobile